createdAt,value
2022-08-08T00:00:52.540Z,123.67
2022-08-08T00:03:19.993Z,123.40
2022-08-08T00:06:34.917Z,123.47
2022-08-08T00:09:08.685Z,123.30
2022-08-08T00:12:07.170Z,123.67
2022-08-08T00:15:08.859Z,123.53
2022-08-08T00:18:03.947Z,123.43
2022-08-08T00:20:53.128Z,123.10
2022-08-08T00:23:42.302Z,123.70
2022-08-08T00:26:26.085Z,123.57
2022-08-08T00:29:44.210Z,122.97
2022-08-08T00:32:37.675Z,123.17
2022-08-08T00:36:01.899Z,123.57
2022-08-08T00:39:36.049Z,123.00
2022-08-08T00:42:52.674Z,123.67
2022-08-08T00:45:53.368Z,123.13
2022-08-08T00:49:22.558Z,123.27
2022-08-08T00:52:22.612Z,123.37
2022-08-08T00:55:36.001Z,123.87
2022-08-08T00:58:43.647Z,124.10
2022-08-08T01:01:37.967Z,124.47
2022-08-08T01:04:55.476Z,124.63
2022-08-08T01:07:57.088Z,124.40
2022-08-08T01:11:08.908Z,124.20
2022-08-08T01:14:16.494Z,124.37
2022-08-08T01:17:35.034Z,124.90
2022-08-08T01:20:39.127Z,123.77
2022-08-08T01:24:13.700Z,124.17
2022-08-08T01:27:16.259Z,124.00
2022-08-08T01:30:03.493Z,124.63
2022-08-08T01:33:33.896Z,123.97
2022-08-08T01:37:21.843Z,124.00
2022-08-08T01:40:31.800Z,123.70
2022-08-08T01:43:24.417Z,123.37
2022-08-08T01:46:30.344Z,123.90
2022-08-08T01:49:14.281Z,124.40
2022-08-08T01:54:06.904Z,124.20
2022-08-08T01:56:29.674Z,123.87
2022-08-08T01:59:11.825Z,123.47
2022-08-08T02:02:05.042Z,124.73
2022-08-08T02:05:23.282Z,125.00
2022-08-08T02:08:18.260Z,124.40
2022-08-08T02:11:23.648Z,124.40
2022-08-08T02:14:05.388Z,124.57
2022-08-08T02:17:20.182Z,124.47
2022-08-08T02:20:09.183Z,124.07
2022-08-08T02:22:57.293Z,124.70
2022-08-08T02:25:48.339Z,124.70
2022-08-08T02:28:35.345Z,124.67
2022-08-08T02:31:58.648Z,124.17
2022-08-08T02:35:08.450Z,124.73
2022-08-08T02:38:25.655Z,125.00
2022-08-08T02:42:03.524Z,124.70
2022-08-08T02:45:18.142Z,125.10
2022-08-08T02:48:25.835Z,124.47
2022-08-08T02:51:47.627Z,124.27
2022-08-08T02:54:45.118Z,124.57
2022-08-08T02:58:08.557Z,124.90
2022-08-08T03:01:08.651Z,124.27
2022-08-08T03:05:02.420Z,124.87
2022-08-08T03:07:58.109Z,124.67
2022-08-08T03:11:59.819Z,124.67
2022-08-08T03:15:59.072Z,124.97
2022-08-08T03:18:13.885Z,124.90
2022-08-08T03:20:51.428Z,124.77
2022-08-08T03:23:39.577Z,124.67
2022-08-08T03:26:30.770Z,124.57
2022-08-08T03:29:16.927Z,124.80
2022-08-08T03:32:08.864Z,124.37
2022-08-08T03:34:40.399Z,125.30
2022-08-08T03:37:59.114Z,124.67
2022-08-08T03:40:07.105Z,124.80
2022-08-08T03:42:49.041Z,124.57
2022-08-08T03:46:05.746Z,124.70
2022-08-08T03:48:21.396Z,124.57
2022-08-08T03:51:07.280Z,124.17
2022-08-08T03:53:42.511Z,124.70
2022-08-08T03:56:31.215Z,124.80
2022-08-08T03:59:00.900Z,124.20
2022-08-08T04:02:32.829Z,124.80
2022-08-08T04:04:30.930Z,124.70
2022-08-08T04:07:01.416Z,124.87
2022-08-08T04:09:59.039Z,124.57
2022-08-08T04:12:22.920Z,124.93
2022-08-08T04:14:51.446Z,124.60
2022-08-08T04:17:46.726Z,124.17
2022-08-08T04:20:08.543Z,124.27
2022-08-08T04:22:37.422Z,124.50
2022-08-08T04:25:08.831Z,124.67
2022-08-08T04:28:03.054Z,124.70
2022-08-08T04:30:30.345Z,124.27
2022-08-08T04:33:07.823Z,124.87
2022-08-08T04:35:39.821Z,124.57
2022-08-08T04:38:09.829Z,124.57
2022-08-08T04:40:51.716Z,124.60
2022-08-08T04:43:32.360Z,124.43
2022-08-08T04:46:14.744Z,124.43
2022-08-08T04:48:43.605Z,124.43
2022-08-08T04:51:11.962Z,124.30
2022-08-08T04:54:27.544Z,124.00
2022-08-08T04:56:32.999Z,124.37
2022-08-08T04:59:01.641Z,123.50
2022-08-08T05:01:35.596Z,123.70
2022-08-08T05:04:16.400Z,123.10
2022-08-08T05:06:48.077Z,123.50
2022-08-08T05:09:21.944Z,122.70
2022-08-08T05:11:56.697Z,122.23
2022-08-08T05:14:26.561Z,123.00
2022-08-08T05:17:00.924Z,122.10
2022-08-08T05:20:12.536Z,122.60
2022-08-08T05:22:27.544Z,122.60
2022-08-08T05:24:55.823Z,122.50
2022-08-08T05:27:24.421Z,121.77
2022-08-08T05:29:53.039Z,122.57
2022-08-08T05:32:27.348Z,122.00
2022-08-08T05:35:04.463Z,122.37
2022-08-08T05:37:51.710Z,121.77
2022-08-08T05:40:28.442Z,121.47
2022-08-08T05:43:38.701Z,122.20
2022-08-08T05:46:07.635Z,122.27
2022-08-08T05:48:38.937Z,121.60
2022-08-08T05:51:14.445Z,121.27
2022-08-08T05:53:56.228Z,121.90
2022-08-08T05:56:47.131Z,121.57
2022-08-08T05:59:57.715Z,121.47
2022-08-08T06:02:44.122Z,121.57
2022-08-08T06:05:33.662Z,121.30
2022-08-08T06:08:09.746Z,121.23
2022-08-08T06:10:50.142Z,121.87
2022-08-08T06:13:22.611Z,121.37
2022-08-08T06:15:56.488Z,121.63
2022-08-08T06:18:47.833Z,121.40
2022-08-08T06:21:33.031Z,121.10
2022-08-08T06:24:13.848Z,121.03
2022-08-08T06:27:04.837Z,121.47
2022-08-08T06:29:59.451Z,120.97
2022-08-08T06:32:33.879Z,120.63
2022-08-08T06:36:04.398Z,120.27
2022-08-08T06:38:09.261Z,120.07
2022-08-08T06:40:48.621Z,120.57
2022-08-08T06:43:30.529Z,120.20
2022-08-08T06:46:09.212Z,118.63
2022-08-08T06:48:43.279Z,119.33
2022-08-08T06:51:15.880Z,119.70
2022-08-08T06:53:50.544Z,120.40
2022-08-08T06:56:26.374Z,118.07
2022-08-08T06:58:54.763Z,118.77
2022-08-08T07:02:17.518Z,119.10
2022-08-08T07:04:41.470Z,122.20
2022-08-08T07:07:20.039Z,119.40
2022-08-08T07:10:03.201Z,119.50
2022-08-08T07:12:48.043Z,119.00
2022-08-08T07:16:04.863Z,118.27
2022-08-08T07:19:15.839Z,118.83
2022-08-08T07:22:04.901Z,118.20
2022-08-08T07:24:59.473Z,117.70
2022-08-08T07:28:00.493Z,117.47
2022-08-08T07:30:29.138Z,118.40
2022-08-08T07:33:01.143Z,117.47
2022-08-08T07:35:31.961Z,115.90
2022-08-08T07:38:18.261Z,115.90
2022-08-08T07:41:04.178Z,116.03
2022-08-08T07:43:36.858Z,115.43
2022-08-08T07:46:23.280Z,115.90
2022-08-08T07:48:52.489Z,115.57
2022-08-08T07:51:23.200Z,114.60
2022-08-08T07:54:32.157Z,113.90
2022-08-08T07:57:48.493Z,114.53
2022-08-08T08:03:58.600Z,112.80
2022-08-08T08:06:30.119Z,112.77
2022-08-08T08:09:28.981Z,112.87
2022-08-08T08:12:04.665Z,112.40
2022-08-08T08:14:59.105Z,111.97
2022-08-08T08:17:36.419Z,111.43
2022-08-08T08:20:21.347Z,111.97
2022-08-08T08:22:57.578Z,111.57
2022-08-08T08:25:42.950Z,111.17
2022-08-08T08:28:17.014Z,110.50
2022-08-08T08:30:53.867Z,109.67
2022-08-08T08:33:24.620Z,109.37
2022-08-08T08:36:20.375Z,108.90
2022-08-08T08:38:49.531Z,109.37
2022-08-08T08:41:19.982Z,110.37
2022-08-08T08:43:51.989Z,111.50
2022-08-08T08:46:25.739Z,114.27
2022-08-08T08:48:55.902Z,111.40
2022-08-08T08:51:28.970Z,109.77
2022-08-08T08:54:02.910Z,110.67
2022-08-08T08:56:37.866Z,108.77
2022-08-08T08:59:15.296Z,109.27
2022-08-08T09:01:55.300Z,107.87
2022-08-08T09:04:39.613Z,106.67
2022-08-08T09:07:23.752Z,105.57
2022-08-08T09:10:13.791Z,105.37
2022-08-08T09:12:47.488Z,104.83
2022-08-08T09:15:18.609Z,105.57
2022-08-08T09:18:06.697Z,106.07
2022-08-08T09:21:59.247Z,106.90
2022-08-08T09:23:26.205Z,106.67
2022-08-08T09:26:16.030Z,106.47
2022-08-08T09:28:45.049Z,106.87
2022-08-08T09:31:56.408Z,105.97
2022-08-08T09:34:35.104Z,106.50
2022-08-08T09:37:57.138Z,106.30
2022-08-08T09:40:10.714Z,104.93
2022-08-08T09:42:51.439Z,105.73
2022-08-08T09:45:54.987Z,105.07
2022-08-08T09:48:26.141Z,105.90
2022-08-08T09:50:58.855Z,104.70
2022-08-08T09:53:59.166Z,104.17
2022-08-08T09:56:40.963Z,104.90
2022-08-08T09:59:50.196Z,105.80
2022-08-08T10:02:12.673Z,105.10
2022-08-08T10:04:47.475Z,103.60
2022-08-08T10:07:17.336Z,103.90
2022-08-08T10:10:00.300Z,102.77
2022-08-08T10:12:53.882Z,102.70
2022-08-08T10:15:28.460Z,101.77
2022-08-08T10:18:06.106Z,102.20
2022-08-08T10:21:25.106Z,103.27
2022-08-08T10:23:59.808Z,103.37
2022-08-08T10:26:52.447Z,103.50
2022-08-08T10:29:43.788Z,102.67
2022-08-08T10:32:34.340Z,103.90
2022-08-08T10:35:20.545Z,103.90
2022-08-08T10:38:05.859Z,104.47
2022-08-08T10:40:39.432Z,105.20
2022-08-08T10:43:09.752Z,104.33
2022-08-08T10:45:56.436Z,103.97
2022-08-08T10:48:58.919Z,104.10
2022-08-08T10:51:31.133Z,104.13
2022-08-08T10:54:08.309Z,103.70
2022-08-08T10:56:42.904Z,103.40
2022-08-08T10:59:14.196Z,103.20
2022-08-08T11:01:54.381Z,103.20
2022-08-08T11:04:29.451Z,103.20
2022-08-08T11:07:01.404Z,102.37
2022-08-08T11:09:32.313Z,102.47
2022-08-08T11:12:12.742Z,103.57
2022-08-08T11:14:57.367Z,100.83
2022-08-08T11:18:00.336Z,100.10
2022-08-08T11:20:29.429Z,100.60
2022-08-08T11:23:05.383Z,100.20
2022-08-08T11:25:53.359Z,99.50
2022-08-08T11:28:30.592Z,102.03
2022-08-08T11:31:04.620Z,101.70
2022-08-08T11:34:01.620Z,101.90
2022-08-08T11:36:29.154Z,103.30
2022-08-08T11:38:57.535Z,102.73
2022-08-08T11:41:32.249Z,102.50
2022-08-08T11:44:02.948Z,103.00
2022-08-08T11:46:34.441Z,102.30
2022-08-08T11:49:14.060Z,102.20
2022-08-08T11:51:50.443Z,101.63
2022-08-08T11:54:44.988Z,100.77
2022-08-08T11:57:28.021Z,100.37
2022-08-08T12:00:10.462Z,99.80
2022-08-08T12:03:00.141Z,100.10
2022-08-08T12:05:36.956Z,101.60
2022-08-08T12:08:05.015Z,102.37
2022-08-08T12:10:32.512Z,100.67
2022-08-08T12:13:10.536Z,102.10
2022-08-08T12:15:42.499Z,101.43
2022-08-08T12:18:21.033Z,101.70
2022-08-08T12:20:53.292Z,100.37
2022-08-08T12:23:43.266Z,100.40
2022-08-08T12:26:45.397Z,98.90
2022-08-08T12:29:44.947Z,98.90
2022-08-08T12:32:31.159Z,99.90
2022-08-08T12:35:04.175Z,99.47
2022-08-08T12:37:41.444Z,99.60
2022-08-08T12:40:54.344Z,99.90
2022-08-08T12:43:46.251Z,100.00
2022-08-08T12:46:26.568Z,100.20
2022-08-08T12:51:59.347Z,99.70
2022-08-08T12:54:36.055Z,99.17
2022-08-08T12:57:23.478Z,98.97
2022-08-08T13:00:04.808Z,99.53
2022-08-08T13:02:51.084Z,99.90
2022-08-08T13:05:26.299Z,99.20
2022-08-08T13:08:18.700Z,99.67
2022-08-08T13:10:56.653Z,99.33
2022-08-08T13:13:35.522Z,99.60
2022-08-08T13:16:25.715Z,99.90
2022-08-08T13:19:00.703Z,99.37
2022-08-08T13:21:53.197Z,100.50
2022-08-08T13:24:40.568Z,100.10
2022-08-08T13:27:35.422Z,100.17
2022-08-08T13:30:06.546Z,99.87
2022-08-08T13:32:39.506Z,100.27
2022-08-08T13:35:24.892Z,100.67
2022-08-08T13:38:07.355Z,102.00
2022-08-08T13:40:45.067Z,102.13
2022-08-08T13:43:16.922Z,105.00
2022-08-08T13:45:47.535Z,104.03
2022-08-08T13:48:19.732Z,104.47
2022-08-08T13:50:57.678Z,104.37
2022-08-08T13:53:53.382Z,103.67
2022-08-08T13:56:44.786Z,104.20
2022-08-08T13:59:39.299Z,102.97
2022-08-08T14:02:21.234Z,102.87
2022-08-08T14:05:09.103Z,102.50
2022-08-08T14:07:52.990Z,102.63
2022-08-08T14:10:33.263Z,101.80
2022-08-08T14:13:30.849Z,100.47
2022-08-08T14:16:16.135Z,101.10
2022-08-08T14:18:55.109Z,101.17
2022-08-08T14:21:52.179Z,101.10
2022-08-08T14:24:34.371Z,100.30
2022-08-08T14:27:07.854Z,101.77
2022-08-08T14:29:39.601Z,101.00
2022-08-08T14:32:11.848Z,101.43
2022-08-08T14:34:42.117Z,100.47
2022-08-08T14:37:12.969Z,100.90
2022-08-08T14:40:06.021Z,101.60
2022-08-08T14:42:54.589Z,101.17
2022-08-08T14:46:01.181Z,101.53
2022-08-08T14:48:17.880Z,102.17
2022-08-08T14:51:06.770Z,102.97
2022-08-08T14:53:54.569Z,102.67
2022-08-08T14:56:25.264Z,103.37
2022-08-08T14:58:54.712Z,103.80
2022-08-08T15:01:37.524Z,103.70
2022-08-08T15:04:11.109Z,103.37
2022-08-08T15:06:39.050Z,103.07
2022-08-08T15:09:09.845Z,103.47
2022-08-08T15:11:46.649Z,103.00
2022-08-08T15:14:25.149Z,102.37
2022-08-08T15:16:55.319Z,102.03
2022-08-08T15:19:27.803Z,102.17
2022-08-08T15:21:55.940Z,102.07
2022-08-08T15:24:31.439Z,103.07
2022-08-08T15:27:11.973Z,103.10
2022-08-08T15:29:48.012Z,103.67
2022-08-08T15:32:20.608Z,104.17
2022-08-08T15:34:51.061Z,104.57
2022-08-08T15:37:19.048Z,104.70
2022-08-08T15:39:47.957Z,104.53
2022-08-08T15:42:31.789Z,104.77
2022-08-08T15:45:01.511Z,104.37
2022-08-08T15:47:31.956Z,104.37
2022-08-08T15:49:59.577Z,105.40
2022-08-08T15:52:27.070Z,105.63
2022-08-08T15:54:54.246Z,105.77
2022-08-08T15:57:23.170Z,105.77
2022-08-08T16:00:06.076Z,105.80
2022-08-08T16:02:50.389Z,107.30
2022-08-08T16:05:21.094Z,106.77
2022-08-08T16:07:53.163Z,107.57
2022-08-08T16:13:09.109Z,108.17
2022-08-08T16:13:34.371Z,109.00
2022-08-08T16:16:16.594Z,108.30
2022-08-08T16:18:56.958Z,109.17
2022-08-08T16:21:29.407Z,109.07
2022-08-08T16:24:01.065Z,108.87
2022-08-08T16:26:33.924Z,109.87
2022-08-08T16:29:07.697Z,111.67
2022-08-08T16:31:40.174Z,112.30
2022-08-08T16:34:10.233Z,113.97
2022-08-08T16:36:40.631Z,115.47
2022-08-08T16:39:28.113Z,115.87
2022-08-08T16:42:00.839Z,115.37
2022-08-08T16:44:34.050Z,114.83
2022-08-08T16:47:40.039Z,115.10
2022-08-08T16:50:15.817Z,114.67
2022-08-08T16:55:02.363Z,114.87
2022-08-08T16:55:54.233Z,115.57
2022-08-08T16:58:25.809Z,115.70
2022-08-08T17:00:55.473Z,115.90
2022-08-08T17:04:00.909Z,115.70
2022-08-08T17:06:37.742Z,115.23
2022-08-08T17:09:00.967Z,115.60
2022-08-08T17:11:39.229Z,115.77
2022-08-08T17:14:19.039Z,115.70
2022-08-08T17:16:57.193Z,116.70
2022-08-08T17:19:27.553Z,116.90
2022-08-08T17:22:01.216Z,117.10
2022-08-08T17:24:30.848Z,117.30
2022-08-08T17:27:01.841Z,117.30
2022-08-08T17:29:33.690Z,117.50
2022-08-08T17:32:04.158Z,117.00
2022-08-08T17:34:49.030Z,116.83
2022-08-08T17:37:19.910Z,117.17
2022-08-08T17:40:11.052Z,117.87
2022-08-08T17:42:35.452Z,117.40
2022-08-08T17:45:03.884Z,117.27
2022-08-08T17:47:40.358Z,117.50
2022-08-08T17:50:09.857Z,118.17
2022-08-08T17:52:38.057Z,117.37
2022-08-08T17:56:03.869Z,118.67
2022-08-08T17:57:54.509Z,118.10
2022-08-08T18:00:30.885Z,118.73
2022-08-08T18:03:07.595Z,119.17
2022-08-08T18:05:44.016Z,118.80
2022-08-08T18:08:24.506Z,118.60
2022-08-08T18:11:16.155Z,119.03
2022-08-08T18:13:47.930Z,118.87
2022-08-08T18:16:20.227Z,119.90
2022-08-08T18:18:56.678Z,118.60
2022-08-08T18:21:58.876Z,118.87
2022-08-08T18:24:22.035Z,118.80
2022-08-08T18:26:56.627Z,118.87
2022-08-08T18:29:35.207Z,118.13
2022-08-08T18:32:08.243Z,117.80
2022-08-08T18:34:39.519Z,118.33
2022-08-08T18:37:08.340Z,117.37
2022-08-08T18:39:41.405Z,118.40
2022-08-08T18:42:15.897Z,118.40
2022-08-08T18:44:55.256Z,118.17
2022-08-08T18:47:26.055Z,118.83
2022-08-08T18:49:58.838Z,119.30
2022-08-08T18:52:36.847Z,118.57
2022-08-08T18:55:10.271Z,119.57
2022-08-08T18:57:45.205Z,118.80
2022-08-08T19:00:20.124Z,120.27
2022-08-08T19:02:57.956Z,118.70
2022-08-08T19:05:45.035Z,120.20
2022-08-08T19:08:25.339Z,119.57
2022-08-08T19:11:01.454Z,118.57
2022-08-08T19:13:52.773Z,121.20
2022-08-08T19:16:23.452Z,120.30
2022-08-08T19:19:00.222Z,120.40
2022-08-08T19:21:33.239Z,123.07
2022-08-08T19:24:05.417Z,122.73
2022-08-08T19:26:37.787Z,123.40
2022-08-08T19:29:06.670Z,121.17
2022-08-08T19:31:35.493Z,123.20
2022-08-08T19:34:30.432Z,123.07
2022-08-08T19:36:58.620Z,123.10
2022-08-08T19:39:30.918Z,122.20
2022-08-08T19:42:04.877Z,122.80
2022-08-08T19:44:34.780Z,122.57
2022-08-08T19:47:12.352Z,122.37
2022-08-08T19:49:43.317Z,123.07
2022-08-08T19:52:17.819Z,121.57
2022-08-08T19:55:09.268Z,122.20
2022-08-08T19:57:40.967Z,121.90
2022-08-08T20:00:28.956Z,122.80
2022-08-08T20:03:01.876Z,121.40
2022-08-08T20:06:13.928Z,121.67
2022-08-08T20:08:32.170Z,121.40
2022-08-08T20:11:01.077Z,122.30
2022-08-08T20:14:12.187Z,121.37
2022-08-08T20:16:18.302Z,120.80
2022-08-08T20:18:53.059Z,120.90
2022-08-08T20:21:25.581Z,119.87
2022-08-08T20:24:00.781Z,121.43
2022-08-08T20:26:30.007Z,121.50
2022-08-08T20:28:59.731Z,121.33
2022-08-08T20:31:47.360Z,121.67
2022-08-08T20:34:28.765Z,121.53
2022-08-08T20:37:00.761Z,120.40
2022-08-08T20:39:39.769Z,118.80
2022-08-08T20:42:28.597Z,121.10
2022-08-08T20:44:58.471Z,121.87
2022-08-08T20:47:26.238Z,121.70
2022-08-08T20:49:57.495Z,119.87
2022-08-08T20:52:29.055Z,121.77
2022-08-08T20:54:57.573Z,119.60
2022-08-08T20:57:28.953Z,120.87
2022-08-08T20:59:57.776Z,120.53
2022-08-08T21:02:27.627Z,120.47
2022-08-08T21:05:00.955Z,121.13
2022-08-08T21:07:46.971Z,120.87
2022-08-08T21:10:21.054Z,119.40
2022-08-08T21:12:52.881Z,120.87
2022-08-08T21:16:04.679Z,120.97
2022-08-08T21:18:11.851Z,121.03
2022-08-08T21:20:41.966Z,121.90
2022-08-08T21:23:13.116Z,121.60
2022-08-08T21:25:48.800Z,121.70
2022-08-08T21:28:19.512Z,121.47
2022-08-08T21:31:21.877Z,121.60
2022-08-08T21:33:52.744Z,121.90
2022-08-08T21:36:29.147Z,121.70
2022-08-08T21:38:57.691Z,121.67
2022-08-08T21:41:38.594Z,121.67
2022-08-08T21:44:14.101Z,121.97
2022-08-08T21:48:05.670Z,121.20
2022-08-08T21:49:30.511Z,121.50
2022-08-08T21:54:32.113Z,121.13
2022-08-08T21:54:53.372Z,121.37
2022-08-08T21:57:43.095Z,121.50
2022-08-08T22:00:25.841Z,121.60
2022-08-08T22:02:53.837Z,121.20
2022-08-08T22:05:22.888Z,121.67
2022-08-08T22:07:50.538Z,121.47
2022-08-08T22:10:32.781Z,121.60
2022-08-08T22:13:16.909Z,121.27
2022-08-08T22:15:58.646Z,121.17
2022-08-08T22:18:34.125Z,122.07
2022-08-08T22:21:13.850Z,121.33
2022-08-08T22:23:51.180Z,121.23
2022-08-08T22:26:29.728Z,121.13
2022-08-08T22:29:15.112Z,122.07
2022-08-08T22:32:01.815Z,121.27
2022-08-08T22:34:32.645Z,121.77
2022-08-08T22:37:00.710Z,121.47
2022-08-08T22:39:45.791Z,121.00
2022-08-08T22:42:27.199Z,120.97
2022-08-08T22:44:58.859Z,121.37
2022-08-08T22:47:38.031Z,121.67
2022-08-08T22:50:09.943Z,121.67
2022-08-08T22:54:15.716Z,121.43
2022-08-08T22:55:58.220Z,121.33
2022-08-08T22:58:32.677Z,121.67
2022-08-08T23:01:16.789Z,121.40
2022-08-08T23:03:53.468Z,121.70
2022-08-08T23:06:23.215Z,121.87
2022-08-08T23:08:55.612Z,121.17
2022-08-08T23:11:30.766Z,121.40
2022-08-08T23:14:12.954Z,121.50
2022-08-08T23:16:43.714Z,122.00
2022-08-08T23:19:12.369Z,121.27
2022-08-08T23:21:43.013Z,122.00
2022-08-08T23:24:22.338Z,121.97
2022-08-08T23:26:53.003Z,121.20
2022-08-08T23:29:25.523Z,121.77
2022-08-08T23:31:54.091Z,121.93
2022-08-08T23:34:22.310Z,121.37
2022-08-08T23:36:58.008Z,121.63
2022-08-08T23:39:32.364Z,121.70
2022-08-08T23:42:09.842Z,121.50
2022-08-08T23:44:38.559Z,122.10
2022-08-08T23:49:08.769Z,121.83
2022-08-08T23:50:02.908Z,121.77
2022-08-08T23:52:34.039Z,121.60
2022-08-08T23:55:14.734Z,121.60
2022-08-08T23:57:52.339Z,121.90
